Nearby METAR Reports

 

LFSI - St. Dizier/Robin, France
Distance from station: SO 26km
Mise à jour: 06/12/2021 04:00
Mist, couvert
Mist, couvert
 Wind from calm
Vent: calme
Température: 2°C
Point de rosée: 2°C
Humidité: 100%
Baromètre: 1012 hPa
Résumé: Mist
Clouds: couvert
Visibility: 4 km
Cloud details: Few Clouds 61 m
nuageux 457 m
couvert 1067 m
2021/12/06 03:00 LFSI 060300Z AUTO 00000KT 4400 BR FEW002 BKN015 OVC035 02/02 Q1012
LFSO - Nancy/Ochey (faf, France
Distance from station: ESE 62km
Mise à jour: 06/12/2021 04:00
Mist, couvert
Mist, couvert
 Wind from calm
Vent: calme
Température: 0°C
Point de rosée: 0°C
Humidité: 100%
Baromètre: 1011 hPa
Résumé: Mist
Clouds: couvert
Visibility: 5 km
Cloud details: Few Clouds 213 m
partiellement nuageux 975 m
couvert 1311 m
2021/12/06 03:00 LFSO 060300Z AUTO 00000KT 5000 BR FEW007 SCT032 OVC043 00/00 Q1011
LFOK - Chalons/Vatry Fa, France
Distance from station: O 73km
Mise à jour: 06/12/2021 04:00

 Wind from calm
Vent: calme
Visibility: 3 km
2021/12/06 03:00 LFOK 060300Z AUTO 00000KT 3100 0800 R10/P5000 R28/1000N BCFG FEW001 OVC031 02/02 Q1012 TEMPO 2000 BR BKN013
 
LFSN - Nancy/Essey, France
Distance from station: E 77km
Mise à jour: 06/12/2021 04:00
Light drizzle, couvert
Light drizzle, couvert
 Wind from ESE
Vent: ESE 4 km/h
Température: 2°C
Point de rosée: 2°C
Humidité: 100%
Baromètre: 1012 hPa
Résumé: Light Drizzle
Clouds: couvert
Visibility: 7 km
Cloud details: couvert 488 m
2021/12/06 03:00 LFSN 060300Z AUTO 12002KT 7000 -DZ OVC016 02/02 Q1012
LFSG - Epinal/Mirecourt, France
Distance from station: SE 81km
Mise à jour: 06/12/2021 04:00
Freezing fog, nuageux
Freezing fog, nuageux
 Wind from OSO
Vent: OSO 6 km/h
Température: -1°C
Point de rosée: -1°C
Humidité: 100%
Baromètre: 1011 hPa
Résumé: Freezing Fog
Clouds: nuageux
Visibility: 0 km
Cloud details: Few Clouds 671 m
nuageux 975 m
2021/12/06 03:00 LFSG 060300Z AUTO 24003KT 0450 R26/0550N FZFG FEW022 BKN032 M01/M01 Q1011
LFJL - Metz-Nancy-Lorra, France
Distance from station: ENE 82km
Mise à jour: 06/12/2021 04:00
couvert
couvert
 Wind from NE
Vent: NE 6 km/h
Température: 2°C
Point de rosée: 2°C
Humidité: 100%
Baromètre: 1011 hPa
Clouds: couvert
Visibility: 9 km
Cloud details: Few Clouds 305 m
nuageux 884 m
couvert 1585 m
2021/12/06 03:00 LFJL 060300Z AUTO 05003KT 9000 FEW010 BKN029 OVC052 02/02 Q1011 TEMPO 2000 -SNRA BR BKN003
 
LFQA - Reims/Prunay, France
Distance from station: ONO 89km
Mise à jour: 06/12/2021 04:00
Mist, couvert
Mist, couvert
 Wind from NO
Vent: NO 13 km/h
Température: 3°C
Wind Chill: -1°C
Point de rosée: 3°C
Humidité: 100%
Baromètre: 1012 hPa
Résumé: Mist
Clouds: couvert
Visibility: 1 km
Cloud details: nuageux 30 m
couvert 1250 m
2021/12/06 03:00 LFQA 060300Z AUTO 31007KT 1100 BR BKN001 OVC041 03/03 Q1012
LFQB - Troyes/Barberey, France
Distance from station: OSO 99km
Mise à jour: 06/12/2021 04:00
couvert
couvert
 Wind from NO
Vent: NO 6 km/h
Température: 4°C
Point de rosée: 3°C
Humidité: 93%
Baromètre: 1012 hPa
Clouds: couvert
Visibility: 7 km
Cloud details: couvert 122 m
2021/12/06 03:00 LFQB 060300Z AUTO 31003KT 7000 OVC004 04/03 Q1012